Portada
METAR-TAF:

METAR-TAF

Aeroports :

Aeroport de Kirkenes-Hoybuktmon

Kirkenes, Noruega

latitud: 69-44N, longitud: 029-54E, altitud: 9 m

Observació

L'informe es va fer fa 34 minuts, a les 22:20 UTC
Vent calma
Temperatura -22°C
Humitat 84%
Pressió 1014 hPa
Visibilitat: 0150 m

METAR: ENKR 182220Z AUTO 00000KT 0150 R05/P2000N R23/0600N NCD M22/M24 Q1014 RMK WIND 731FT 10010KT

Hora: 23:54 (22:54 UTC)

Pronòstic

L'informe es va fer fa 8 hores i 54 minuts, a les 14:00 UTC
Pronòstic vàlid del 18 a les 15 UTC al 18 a les 24 UTC
Vent 5 kt del Sud
Visibilitat 10 km o més
Cel ennuvolat a una alçada de 300 ft
Temporalment
l' 18 a les 15 UTC al 18 a les 20 UTC
Visibilitat: 0100 m
a una alçada de 100 ft
boira gebradora
Evolucionant progressivament
l' 18 a les 18 UTC al 18 a les 21 UTC
Escasses núvols a una alçada de 300 ft

TAF: ENKR 181400Z 1815/1824 18005KT 9999 BKN003 TEMPO 1815/1820 0100 FZFG VV001 BECMG 1818/1821 FEW003

Observacions i pronòstics meteorològics de més de 4000 aeroports (METAR i TAF).

Les estacions disponibles són els punts grocs i vermells al mapa.

Posi el ratolí al punt desitjat per veure el nom de l'estació.

Feu clic per veure les observacions i els pronòstics meteorològics.

Per canviar el mapa: feu clic els botons verds amb una creu de color negre per apropar; al botó verd amb un guió per allunyar la imatge; o en les fletxes verdes per a mapes adjacents.


METAR-TAF: